首页
METAR-TAF:

METAR-TAF

机场 :

RAF

Boulmer, 英格兰

纬度: 55-25-19N, 经度: 1-36-12W, 海拔: 24米

当前天气观测

该预报发布于21分钟前的10:50 UTC
风速11节,风向
温度 15°C
湿度 55%
气压 1012 hPa
能见度10公里或以上

METAR: EGQM 011050Z AUTO 35011KT 9999 FEW036/// SCT041/// 15/06 Q1012

时间: 12:11 (11:11 UTC)


TAF: 丢失

超过4000个机场的气象观测和天气预报(METAR&TAF报告)。

可查询的气象台以黄色和红色小点在地图上表示。

将鼠标移到小点上方,可查看气象台名称。

然后点击查看天气观测和预报。

如需切换地图:点击带黑十字的绿色按钮放大地图;点击带横线的绿色按钮缩小地图;或者点击绿色箭头查看邻近地区的地图。


METAR-TAF: